Terminal Aerodrome Forecast
Issued by NWS Green Bay, WI

Home | Current Version | Previous Version | Text Only | Print | Product List | Glossary Off
Versions: 1 2 3 4 5 6 7 8 9 10 11 12 13 14 15 16 17

000
FTUS43 KGRB 250813 AAA
TAFGRB
TAF AMD
KGRB 250813Z 2508/2606 36005KT P6SM SCT010 BKN080
     FM251800 04011KT P6SM FEW020 BKN060
     FM252200 04010KT P6SM SCT100
     FM260100 06006KT P6SM SCT150=

USA.gov is the U.S. government's official web portal to all federal, state and local government web resources and services.